createdAt,value
2022-12-24T00:01:03.290Z,90.20
2022-12-24T00:03:30.295Z,89.80
2022-12-24T00:05:57.286Z,90.00
2022-12-24T00:08:24.186Z,89.50
2022-12-24T00:10:52.317Z,89.40
2022-12-24T00:13:20.319Z,89.20
2022-12-24T00:15:47.337Z,88.90
2022-12-24T00:18:14.200Z,88.90
2022-12-24T00:20:41.537Z,88.90
2022-12-24T00:23:08.949Z,89.30
2022-12-24T00:25:35.698Z,89.40
2022-12-24T00:28:02.495Z,89.30
2022-12-24T00:30:29.643Z,88.70
2022-12-24T00:32:56.562Z,88.40
2022-12-24T00:35:23.792Z,88.50
2022-12-24T00:37:50.873Z,88.90
2022-12-24T00:40:18.547Z,88.60
2022-12-24T00:42:45.400Z,88.10
2022-12-24T00:45:12.943Z,87.80
2022-12-24T00:47:39.705Z,87.30
2022-12-24T00:50:07.425Z,86.90
2022-12-24T00:52:34.252Z,87.20
2022-12-24T00:55:01.115Z,87.60
2022-12-24T00:57:27.938Z,87.50
2022-12-24T00:59:54.692Z,87.60
2022-12-24T01:02:21.649Z,88.20
2022-12-24T01:05:07.567Z,87.90
2022-12-24T01:07:35.495Z,87.30
2022-12-24T01:10:02.445Z,87.50
2022-12-24T01:12:29.638Z,87.40
2022-12-24T01:14:56.437Z,87.70
2022-12-24T01:17:23.356Z,87.50
2022-12-24T01:19:50.403Z,88.10
2022-12-24T01:22:17.317Z,88.40
2022-12-24T01:24:44.656Z,88.80
2022-12-24T01:27:11.490Z,89.00
2022-12-24T01:29:38.336Z,88.80
2022-12-24T01:32:05.130Z,89.00
2022-12-24T01:34:31.916Z,88.10
2022-12-24T01:36:58.735Z,88.10
2022-12-24T01:39:25.548Z,88.20
2022-12-24T01:42:11.097Z,88.20
2022-12-24T01:44:43.851Z,88.40
2022-12-24T01:47:18.436Z,88.70
2022-12-24T01:49:50.950Z,88.50
2022-12-24T01:52:22.816Z,88.80
2022-12-24T01:54:53.867Z,88.70
2022-12-24T01:57:34.523Z,88.40
2022-12-24T02:00:05.758Z,88.40
2022-12-24T02:02:33.608Z,87.60
2022-12-24T02:05:29.796Z,87.40
2022-12-24T02:07:58.068Z,87.20
2022-12-24T02:10:24.964Z,86.80
2022-12-24T02:12:52.660Z,87.00
2022-12-24T02:15:20.862Z,86.10
2022-12-24T02:18:19.499Z,86.30
2022-12-24T02:21:20.239Z,86.00
2022-12-24T02:23:57.211Z,86.70
2022-12-24T02:26:59.462Z,86.70
2022-12-24T02:29:33.145Z,86.70
2022-12-24T02:32:10.906Z,86.60
2022-12-24T02:34:53.963Z,87.20
2022-12-24T02:37:33.057Z,86.90
2022-12-24T02:40:20.502Z,86.80
2022-12-24T02:42:51.848Z,86.90
2022-12-24T02:45:25.885Z,87.40
2022-12-24T02:47:54.752Z,86.80
2022-12-24T02:50:21.740Z,86.60
2022-12-24T02:52:48.757Z,86.50
2022-12-24T02:59:28.407Z,87.10
2022-12-24T03:02:14.998Z,87.60
2022-12-24T03:05:20.881Z,87.50
2022-12-24T03:08:25.362Z,87.50
2022-12-24T03:11:02.517Z,87.50
2022-12-24T03:13:29.697Z,87.30
2022-12-24T03:15:56.546Z,87.60
2022-12-24T03:18:26.515Z,87.70
2022-12-24T03:21:14.380Z,88.20
2022-12-24T03:23:41.683Z,88.20
2022-12-24T03:26:12.483Z,88.10
2022-12-24T03:28:41.028Z,88.20
2022-12-24T03:31:08.823Z,87.80
2022-12-24T03:33:35.988Z,87.10
2022-12-24T03:36:03.464Z,87.10
2022-12-24T03:38:30.301Z,86.70
2022-12-24T03:40:58.052Z,87.00
2022-12-24T03:43:24.804Z,86.40
2022-12-24T03:45:51.599Z,86.50
2022-12-24T03:48:18.401Z,85.80
2022-12-24T03:50:45.239Z,86.20
2022-12-24T03:53:11.985Z,86.50
2022-12-24T03:55:39.986Z,86.20
2022-12-24T03:58:07.180Z,86.00
2022-12-24T04:00:33.895Z,86.20
2022-12-24T04:03:00.651Z,86.30
2022-12-24T04:05:27.405Z,86.60
2022-12-24T04:07:54.113Z,86.40
2022-12-24T04:10:20.856Z,86.80
2022-12-24T04:12:47.594Z,87.10
2022-12-24T04:15:14.375Z,87.30
2022-12-24T04:17:41.095Z,87.60
2022-12-24T04:20:08.510Z,87.00
2022-12-24T04:22:35.231Z,87.10
2022-12-24T04:25:01.991Z,87.50
2022-12-24T04:27:31.054Z,87.70
2022-12-24T04:29:58.005Z,87.70
2022-12-24T04:32:26.573Z,87.40
2022-12-24T04:34:53.396Z,87.80
2022-12-24T04:37:20.253Z,87.90
2022-12-24T04:39:47.000Z,88.30
2022-12-24T04:42:13.764Z,87.70
2022-12-24T04:44:40.521Z,88.00
2022-12-24T04:47:07.251Z,88.20
2022-12-24T04:49:34.033Z,88.50
2022-12-24T04:52:00.766Z,88.70
2022-12-24T04:54:27.539Z,88.70
2022-12-24T04:56:54.300Z,88.40
2022-12-24T04:59:21.071Z,88.30
2022-12-24T05:01:47.891Z,88.30
2022-12-24T05:04:14.728Z,88.40
2022-12-24T05:06:41.531Z,88.10
2022-12-24T05:09:08.258Z,87.90
2022-12-24T05:11:34.985Z,87.90
2022-12-24T05:14:01.981Z,88.10
2022-12-24T05:16:29.006Z,88.30
2022-12-24T05:18:55.777Z,88.40
2022-12-24T05:21:24.594Z,88.80
2022-12-24T05:24:10.916Z,88.80
2022-12-24T05:26:42.609Z,88.80
2022-12-24T05:29:12.078Z,88.70
2022-12-24T05:31:40.173Z,88.80
2022-12-24T05:34:07.374Z,89.10
2022-12-24T05:36:34.206Z,88.90
2022-12-24T05:39:00.994Z,89.10
2022-12-24T05:41:28.222Z,88.90
2022-12-24T05:43:55.114Z,88.80
2022-12-24T05:46:23.058Z,88.70
2022-12-24T05:48:50.752Z,89.00
2022-12-24T05:51:19.696Z,88.80
2022-12-24T05:53:47.858Z,88.90
2022-12-24T05:56:17.740Z,88.90
2022-12-24T05:58:45.210Z,88.90
2022-12-24T06:01:12.727Z,88.80
2022-12-24T06:03:39.869Z,88.60
2022-12-24T06:06:11.225Z,88.60
2022-12-24T06:08:38.755Z,88.60
2022-12-24T06:11:08.037Z,88.80
2022-12-24T06:13:35.082Z,88.80
2022-12-24T06:16:03.566Z,88.50
2022-12-24T06:18:31.769Z,88.50
2022-12-24T06:20:59.788Z,88.60
2022-12-24T06:23:28.678Z,88.60
2022-12-24T06:25:57.137Z,88.50
2022-12-24T06:28:23.879Z,88.60
2022-12-24T06:30:53.643Z,88.50
2022-12-24T06:33:23.913Z,88.50
2022-12-24T06:35:50.643Z,88.50
2022-12-24T06:38:17.452Z,88.60
2022-12-24T06:40:45.339Z,88.40
2022-12-24T06:43:13.034Z,88.50
2022-12-24T06:45:40.292Z,88.40
2022-12-24T06:48:07.049Z,88.40
2022-12-24T06:50:34.302Z,88.10
2022-12-24T06:53:01.022Z,88.10
2022-12-24T06:55:28.055Z,88.20
2022-12-24T06:57:54.852Z,88.40
2022-12-24T07:00:21.901Z,88.30
2022-12-24T07:02:48.743Z,88.40
2022-12-24T07:05:16.044Z,88.50
2022-12-24T07:07:44.887Z,88.60
2022-12-24T07:10:14.999Z,88.60
2022-12-24T07:12:42.705Z,88.50
2022-12-24T07:15:10.295Z,88.60
2022-12-24T07:17:37.413Z,88.50
2022-12-24T07:20:05.366Z,88.60
2022-12-24T07:22:32.256Z,88.50
2022-12-24T07:24:59.075Z,88.30
2022-12-24T07:27:25.828Z,88.20
2022-12-24T07:29:52.626Z,88.20
2022-12-24T07:32:20.435Z,87.60
2022-12-24T07:34:47.251Z,87.90
2022-12-24T07:37:14.398Z,87.90
2022-12-24T07:39:41.114Z,87.70
2022-12-24T07:42:08.508Z,87.50
2022-12-24T07:44:35.413Z,87.50
2022-12-24T07:47:02.280Z,87.20
2022-12-24T07:49:29.404Z,87.40
2022-12-24T07:51:56.186Z,87.30
2022-12-24T07:54:22.970Z,87.40
2022-12-24T07:56:49.932Z,87.80
2022-12-24T07:59:16.689Z,87.90
2022-12-24T08:01:43.651Z,88.20
2022-12-24T08:04:10.640Z,88.20
2022-12-24T08:06:37.599Z,88.00
2022-12-24T08:09:04.778Z,87.90
2022-12-24T08:11:31.575Z,87.90
2022-12-24T08:13:58.307Z,88.20
2022-12-24T08:16:25.300Z,88.20
2022-12-24T08:18:52.398Z,88.30
2022-12-24T08:21:19.179Z,88.10
2022-12-24T08:23:47.113Z,87.90
2022-12-24T08:26:13.932Z,88.00
2022-12-24T08:28:41.217Z,88.10
2022-12-24T08:31:08.456Z,88.40
2022-12-24T08:33:35.443Z,88.80
2022-12-24T08:36:05.137Z,88.60
2022-12-24T08:38:31.839Z,88.90
2022-12-24T08:40:58.576Z,88.90
2022-12-24T08:43:28.246Z,88.30
2022-12-24T08:45:55.031Z,88.10
2022-12-24T08:48:21.802Z,87.90
2022-12-24T08:50:48.536Z,87.80
2022-12-24T08:53:15.374Z,88.10
2022-12-24T08:55:42.384Z,87.60
2022-12-24T08:58:09.138Z,87.50
2022-12-24T09:00:36.171Z,87.40
2022-12-24T09:03:03.157Z,87.60
2022-12-24T09:05:30.347Z,87.90
2022-12-24T09:07:57.164Z,87.50
2022-12-24T09:10:24.478Z,87.40
2022-12-24T09:12:51.308Z,87.70
2022-12-24T09:15:18.998Z,87.20
2022-12-24T09:17:45.727Z,87.50
2022-12-24T09:20:12.611Z,87.50
2022-12-24T09:22:40.126Z,87.60
2022-12-24T09:25:08.705Z,86.80
2022-12-24T09:27:35.671Z,86.80
2022-12-24T09:30:03.850Z,86.90
2022-12-24T09:32:31.276Z,86.60
2022-12-24T09:34:58.117Z,86.70
2022-12-24T09:37:25.008Z,86.40
2022-12-24T09:39:51.934Z,86.80
2022-12-24T09:42:27.716Z,87.20
2022-12-24T09:45:07.947Z,85.90
2022-12-24T09:47:57.508Z,86.40
2022-12-24T09:50:24.210Z,86.70
2022-12-24T09:52:53.199Z,86.60
2022-12-24T09:55:25.829Z,85.40
2022-12-24T09:57:54.643Z,85.70
2022-12-24T10:00:29.126Z,85.60
2022-12-24T10:02:56.386Z,85.70
2022-12-24T10:05:45.052Z,85.90
2022-12-24T10:08:30.397Z,85.90
2022-12-24T10:11:24.709Z,85.30
2022-12-24T10:14:00.528Z,85.30
2022-12-24T10:17:06.703Z,84.80
2022-12-24T10:20:11.406Z,85.10
2022-12-24T10:22:53.489Z,85.30
2022-12-24T10:25:49.320Z,85.00
2022-12-24T10:28:19.899Z,85.10
2022-12-24T10:30:50.235Z,85.60
2022-12-24T10:33:29.055Z,86.20
2022-12-24T10:35:58.382Z,86.00
2022-12-24T10:38:25.758Z,85.80
2022-12-24T10:40:55.455Z,85.40
2022-12-24T10:43:28.162Z,85.80
2022-12-24T10:46:03.006Z,85.00
2022-12-24T10:48:36.350Z,84.50
2022-12-24T10:51:07.747Z,85.10
2022-12-24T10:53:43.047Z,84.90
2022-12-24T10:56:13.281Z,84.40
2022-12-24T10:58:54.408Z,84.10
2022-12-24T11:01:47.870Z,84.60
2022-12-24T11:04:21.508Z,83.90
2022-12-24T11:06:54.240Z,83.80
2022-12-24T11:09:34.052Z,84.10
2022-12-24T11:12:08.602Z,83.90
2022-12-24T11:14:38.717Z,83.20
2022-12-24T11:17:06.088Z,82.90
2022-12-24T11:19:35.694Z,82.10
2022-12-24T11:22:06.249Z,81.60
2022-12-24T11:24:35.596Z,81.80
2022-12-24T11:27:29.133Z,81.00
2022-12-24T11:30:22.173Z,80.70
2022-12-24T11:33:10.445Z,80.00
2022-12-24T11:35:45.915Z,80.10
2022-12-24T11:38:27.744Z,80.10
2022-12-24T11:41:04.093Z,81.50
2022-12-24T11:43:49.754Z,82.00
2022-12-24T11:46:27.335Z,82.80
2022-12-24T11:49:12.048Z,82.90
2022-12-24T11:51:40.807Z,82.50
2022-12-24T11:54:19.218Z,80.70
2022-12-24T11:56:49.858Z,81.20
2022-12-24T11:59:26.585Z,80.00
2022-12-24T12:02:04.103Z,80.20
2022-12-24T12:04:35.238Z,79.30
2022-12-24T12:07:11.134Z,79.00
2022-12-24T12:09:50.059Z,79.40
2022-12-24T12:12:25.803Z,78.90
2022-12-24T12:14:58.661Z,78.70
2022-12-24T12:17:59.178Z,79.20
2022-12-24T12:20:34.174Z,78.90
2022-12-24T12:23:14.128Z,77.30
2022-12-24T12:26:02.479Z,78.10
2022-12-24T12:28:57.037Z,75.90
2022-12-24T12:31:38.784Z,75.60
2022-12-24T12:34:23.670Z,76.10
2022-12-24T12:37:03.072Z,77.40
2022-12-24T12:39:31.624Z,76.10
2022-12-24T12:42:37.852Z,75.90
2022-12-24T12:45:16.625Z,78.30
2022-12-24T12:48:07.287Z,78.10
2022-12-24T12:50:45.520Z,80.30
2022-12-24T12:53:31.011Z,76.90
2022-12-24T12:56:28.208Z,76.50
2022-12-24T12:59:02.652Z,74.70
2022-12-24T13:02:01.782Z,75.10
2022-12-24T13:04:50.839Z,75.20
2022-12-24T13:07:50.229Z,74.30
2022-12-24T13:10:35.682Z,73.80
2022-12-24T13:13:20.196Z,74.50
2022-12-24T13:16:23.901Z,74.50
2022-12-24T13:19:14.768Z,77.00
2022-12-24T13:21:48.652Z,76.70
2022-12-24T13:24:21.327Z,77.40
2022-12-24T13:27:02.697Z,77.10
2022-12-24T13:29:50.407Z,76.80
2022-12-24T13:32:20.189Z,76.70
2022-12-24T13:34:54.136Z,76.90
2022-12-24T13:37:33.566Z,77.00
2022-12-24T13:40:06.317Z,76.30
2022-12-24T13:42:51.261Z,76.50
2022-12-24T13:45:33.220Z,77.40
2022-12-24T13:48:05.943Z,75.90
2022-12-24T13:50:49.351Z,77.60
2022-12-24T13:53:23.723Z,77.10
2022-12-24T13:55:56.688Z,76.10
2022-12-24T13:58:25.494Z,77.60
2022-12-24T14:00:55.957Z,77.40
2022-12-24T14:03:51.041Z,77.40
2022-12-24T14:06:20.833Z,77.00
2022-12-24T14:08:50.195Z,77.50
2022-12-24T14:11:22.084Z,77.90
2022-12-24T14:13:48.830Z,77.20
2022-12-24T14:16:24.555Z,77.70
2022-12-24T14:19:14.445Z,77.70
2022-12-24T14:21:52.942Z,77.80
2022-12-24T14:24:27.211Z,77.50
2022-12-24T14:26:59.810Z,79.00
2022-12-24T14:29:34.009Z,78.90
2022-12-24T14:32:05.151Z,79.00
2022-12-24T14:34:32.115Z,78.50
2022-12-24T14:37:02.797Z,77.90
2022-12-24T14:39:38.948Z,78.20
2022-12-24T14:42:47.147Z,78.30
2022-12-24T14:45:25.410Z,78.10
2022-12-24T14:48:16.156Z,78.70
2022-12-24T14:50:59.867Z,78.70
2022-12-24T14:53:55.945Z,79.70
2022-12-24T14:56:23.561Z,80.00
2022-12-24T14:58:50.801Z,80.30
2022-12-24T15:01:30.750Z,80.60
2022-12-24T15:04:09.558Z,80.60
2022-12-24T15:06:43.205Z,81.10
2022-12-24T15:09:29.228Z,81.30
2022-12-24T15:12:00.182Z,81.50
2022-12-24T15:14:30.211Z,81.10
2022-12-24T15:17:01.876Z,81.30
2022-12-24T15:19:52.667Z,81.10
2022-12-24T15:22:30.971Z,81.30
2022-12-24T15:24:57.854Z,81.50
2022-12-24T15:27:26.810Z,81.80
2022-12-24T15:29:57.472Z,81.80
2022-12-24T15:32:24.464Z,81.90
2022-12-24T15:34:53.537Z,81.90
2022-12-24T15:37:23.759Z,82.10
2022-12-24T15:40:00.111Z,82.30
2022-12-24T15:42:28.299Z,82.50
2022-12-24T15:44:54.945Z,82.60
2022-12-24T15:47:28.178Z,82.60
2022-12-24T15:49:55.436Z,82.80
2022-12-24T15:52:27.559Z,82.60
2022-12-24T15:54:58.113Z,83.00
2022-12-24T15:57:33.676Z,82.80
2022-12-24T16:00:02.399Z,82.80
2022-12-24T16:02:41.418Z,83.70
2022-12-24T16:05:36.079Z,84.30
2022-12-24T16:08:15.028Z,84.50
2022-12-24T16:10:46.662Z,85.40
2022-12-24T16:13:23.780Z,86.20
2022-12-24T16:15:56.855Z,86.50
2022-12-24T16:18:32.819Z,86.30
2022-12-24T16:21:00.072Z,86.10
2022-12-24T16:23:50.464Z,85.50
2022-12-24T16:26:17.225Z,86.20
2022-12-24T16:28:43.973Z,86.10
2022-12-24T16:31:28.909Z,86.80
2022-12-24T16:33:58.712Z,86.60
2022-12-24T16:36:25.765Z,87.10
2022-12-24T16:39:11.441Z,88.30
2022-12-24T16:41:58.149Z,88.10
2022-12-24T16:44:24.839Z,87.90
2022-12-24T16:46:53.255Z,88.20
2022-12-24T16:49:21.499Z,88.50
2022-12-24T16:51:48.407Z,88.40
2022-12-24T16:54:16.391Z,87.60
2022-12-24T16:56:44.648Z,88.20
2022-12-24T16:59:20.337Z,88.60
2022-12-24T17:01:48.077Z,88.60
2022-12-24T17:04:15.969Z,88.60
2022-12-24T17:06:42.765Z,89.00
2022-12-24T17:09:10.975Z,89.30
2022-12-24T17:11:38.407Z,89.10
2022-12-24T17:14:08.388Z,89.00
2022-12-24T17:16:37.452Z,89.40
2022-12-24T17:19:04.830Z,89.40
2022-12-24T17:21:32.021Z,89.50
2022-12-24T17:23:58.824Z,89.50
2022-12-24T17:26:25.921Z,89.20
2022-12-24T17:28:56.758Z,89.10
2022-12-24T17:31:24.582Z,88.60
2022-12-24T17:33:52.250Z,88.60
2022-12-24T17:36:20.663Z,88.30
2022-12-24T17:38:47.751Z,88.70
2022-12-24T17:41:19.726Z,88.40
2022-12-24T17:43:47.835Z,88.20
2022-12-24T17:46:17.507Z,88.60
2022-12-24T17:48:44.911Z,88.80
2022-12-24T17:51:13.429Z,89.00
2022-12-24T17:53:41.931Z,89.50
2022-12-24T17:56:12.148Z,89.30
2022-12-24T17:58:43.478Z,89.50
2022-12-24T18:01:13.186Z,89.40
2022-12-24T18:03:40.257Z,89.50
2022-12-24T18:06:09.158Z,89.30
2022-12-24T18:08:36.390Z,89.80
2022-12-24T18:11:19.703Z,90.10
2022-12-24T18:13:50.277Z,89.90
2022-12-24T18:16:25.982Z,90.00
2022-12-24T18:18:53.716Z,89.90
2022-12-24T18:21:23.206Z,90.30
2022-12-24T18:23:51.563Z,90.40
2022-12-24T18:26:19.834Z,90.20
2022-12-24T18:28:47.301Z,90.50
2022-12-24T18:31:17.606Z,90.80
2022-12-24T18:33:45.762Z,91.10
2022-12-24T18:36:13.319Z,91.40
2022-12-24T18:38:40.407Z,91.30
2022-12-24T18:41:33.759Z,91.20
2022-12-24T18:44:11.490Z,91.20
2022-12-24T18:46:38.872Z,91.30
2022-12-24T18:49:11.855Z,91.40
2022-12-24T18:55:27.087Z,91.20
2022-12-24T18:57:53.976Z,91.10
2022-12-24T19:00:21.141Z,91.10
2022-12-24T19:02:48.484Z,91.20
2022-12-24T19:05:15.464Z,91.20
2022-12-24T19:07:42.288Z,91.30
2022-12-24T19:10:09.536Z,91.40
2022-12-24T19:12:36.354Z,91.60
2022-12-24T19:15:04.132Z,91.80
2022-12-24T19:17:31.759Z,91.90
2022-12-24T19:19:58.476Z,92.10
2022-12-24T19:22:28.324Z,92.20
2022-12-24T19:24:55.063Z,92.20
2022-12-24T19:27:23.548Z,92.10
2022-12-24T19:29:50.378Z,92.30
2022-12-24T19:32:17.163Z,92.20
2022-12-24T19:34:43.969Z,92.40
2022-12-24T19:37:11.216Z,92.80
2022-12-24T19:39:37.989Z,92.70
2022-12-24T19:42:05.850Z,92.80
2022-12-24T19:44:32.602Z,92.80
2022-12-24T19:46:59.434Z,92.70
2022-12-24T19:49:26.220Z,92.90
2022-12-24T19:51:54.665Z,92.90
2022-12-24T19:54:22.022Z,92.80
2022-12-24T19:56:48.730Z,92.50
2022-12-24T19:59:15.531Z,92.80
2022-12-24T20:01:42.523Z,92.80
2022-12-24T20:04:10.426Z,92.70
2022-12-24T20:06:37.190Z,92.60
2022-12-24T20:09:06.626Z,92.50
2022-12-24T20:11:34.475Z,92.50
2022-12-24T20:14:03.567Z,92.40
2022-12-24T20:17:14.786Z,92.50
2022-12-24T20:19:44.547Z,92.60
2022-12-24T20:22:12.236Z,92.50
2022-12-24T20:24:39.951Z,92.70
2022-12-24T20:27:06.662Z,92.60
2022-12-24T20:29:33.484Z,92.70
2022-12-24T20:32:00.403Z,92.80
2022-12-24T20:34:27.347Z,92.70
2022-12-24T20:36:54.221Z,92.80
2022-12-24T20:39:21.579Z,92.80
2022-12-24T20:41:48.297Z,92.90
2022-12-24T20:44:15.047Z,92.90
2022-12-24T20:46:41.786Z,93.00
2022-12-24T20:49:11.650Z,92.90
2022-12-24T20:51:38.371Z,92.90
2022-12-24T20:54:05.148Z,92.80
2022-12-24T20:56:31.953Z,93.00
2022-12-24T20:58:59.863Z,92.70
2022-12-24T21:01:26.946Z,92.90
2022-12-24T21:03:55.944Z,93.00
2022-12-24T21:06:24.712Z,92.90
2022-12-24T21:08:52.823Z,92.70
2022-12-24T21:11:39.320Z,92.50
2022-12-24T21:14:06.627Z,92.50
2022-12-24T21:16:35.851Z,92.60
2022-12-24T21:19:03.377Z,92.50
2022-12-24T21:21:30.259Z,92.30
2022-12-24T21:23:57.538Z,92.40
2022-12-24T21:26:24.270Z,92.50
2022-12-24T21:28:50.991Z,92.50
2022-12-24T21:31:18.256Z,92.50
2022-12-24T21:33:45.240Z,92.50
2022-12-24T21:36:13.602Z,92.50
2022-12-24T21:38:40.449Z,92.50
2022-12-24T21:41:10.160Z,92.50
2022-12-24T21:43:37.574Z,92.50
2022-12-24T21:46:08.960Z,92.30
2022-12-24T21:48:55.446Z,92.30
2022-12-24T21:51:24.480Z,92.50
2022-12-24T21:54:10.045Z,92.60
2022-12-24T21:56:56.915Z,92.70
2022-12-24T21:59:26.898Z,93.00
2022-12-24T22:01:54.897Z,93.00
2022-12-24T22:04:22.018Z,93.00
2022-12-24T22:07:07.661Z,93.10
2022-12-24T22:09:53.090Z,93.20
2022-12-24T22:12:20.213Z,93.10
2022-12-24T22:14:47.093Z,92.90
2022-12-24T22:17:16.179Z,92.90
2022-12-24T22:19:46.660Z,93.30
2022-12-24T22:22:13.456Z,93.20
2022-12-24T22:24:40.204Z,93.20
2022-12-24T22:27:07.489Z,92.90
2022-12-24T22:29:34.656Z,92.90
2022-12-24T22:32:01.411Z,93.00
2022-12-24T22:34:28.194Z,93.10
2022-12-24T22:36:54.945Z,93.10
2022-12-24T22:39:21.724Z,93.20
2022-12-24T22:41:50.750Z,93.50
2022-12-24T22:44:17.480Z,93.70
2022-12-24T22:46:44.341Z,93.70
2022-12-24T22:49:11.444Z,93.70
2022-12-24T22:51:38.201Z,93.60
2022-12-24T22:54:05.090Z,93.70
2022-12-24T22:56:38.849Z,93.70
2022-12-24T22:59:08.118Z,93.00
2022-12-24T23:01:38.082Z,93.40
2022-12-24T23:04:07.510Z,93.60
2022-12-24T23:06:34.888Z,93.40
2022-12-24T23:09:03.375Z,93.60
2022-12-24T23:11:30.539Z,93.80
2022-12-24T23:14:15.958Z,93.50
2022-12-24T23:16:42.918Z,93.60
2022-12-24T23:19:10.302Z,93.90
2022-12-24T23:21:37.159Z,94.00
2022-12-24T23:24:04.575Z,94.10
2022-12-24T23:26:31.430Z,94.20
2022-12-24T23:28:58.259Z,94.30
2022-12-24T23:31:25.575Z,94.30
2022-12-24T23:33:52.781Z,94.30
2022-12-24T23:36:19.942Z,94.30
2022-12-24T23:38:47.135Z,94.40
2022-12-24T23:41:16.599Z,94.20
2022-12-24T23:43:43.372Z,94.00
2022-12-24T23:46:13.589Z,93.70
2022-12-24T23:48:40.609Z,94.10
2022-12-24T23:51:13.748Z,94.20
2022-12-24T23:53:40.809Z,94.10
2022-12-24T23:56:10.793Z,94.10
2022-12-24T23:58:41.402Z,94.00
